Time;durP1;ratioP1;P1;durP2;ratioP2;P2;SDS_P1;SDS_P2;PMS_P1;PMS_P2;Temp;Humidity;BMP_temperature;BMP_pressure;BME280_temperature;BME280_humidity;BME280_pressure;Samples;Min_cycle;Max_cycle;Signal;HPM_P1;HPM_P2
2022/05/13 00:01:40;;;;;;;7.60;3.25;;;;;;;;;;5100538;28;20055;-76
2022/05/13 00:04:06;;;;;;;7.60;3.10;;;;;;;;;;5100333;28;20036;-75
2022/05/13 00:06:33;;;;;;;7.63;3.10;;;;;;;;;;5092063;28;20044;-75
2022/05/13 00:08:59;;;;;;;6.70;3.15;;;;;;;;;;5104514;28;20127;-76
2022/05/13 00:11:25;;;;;;;8.32;3.05;;;;;;;;;;5095608;28;20495;-76
2022/05/13 00:13:51;;;;;;;6.00;3.00;;;;;;;;;;5079968;28;20035;-76
2022/05/13 00:16:17;;;;;;;8.20;3.92;;;;;;;;;;5086394;28;20547;-75
2022/05/13 00:18:44;;;;;;;10.48;3.65;;;;;;;;;;5091679;28;20649;-76
2022/05/13 00:21:10;;;;;;;8.48;3.35;;;;;;;;;;5101539;28;20644;-76
2022/05/13 00:23:36;;;;;;;4.85;2.83;;;;;;;;;;5098665;28;20046;-75
2022/05/13 00:26:02;;;;;;;6.75;3.10;;;;;;;;;;5076393;28;20102;-76
2022/05/13 00:28:29;;;;;;;8.50;3.25;;;;;;;;;;5103010;28;20514;-76
2022/05/13 00:30:55;;;;;;;10.15;3.42;;;;;;;;;;5092044;28;20058;-76
2022/05/13 00:33:21;;;;;;;7.45;2.85;;;;;;;;;;5098015;28;20043;-76
2022/05/13 00:35:48;;;;;;;8.80;3.60;;;;;;;;;;5101280;28;20122;-75
2022/05/13 00:38:14;;;;;;;7.68;3.45;;;;;;;;;;5091472;28;20051;-76
2022/05/13 00:40:41;;;;;;;9.35;4.70;;;;;;;;;;5102786;28;20476;-76
2022/05/13 00:43:08;;;;;;;10.90;3.30;;;;;;;;;;5097154;28;20631;-76
2022/05/13 00:45:35;;;;;;;8.73;3.35;;;;;;;;;;5094434;28;20488;-76
2022/05/13 00:48:02;;;;;;;6.50;3.42;;;;;;;;;;5087031;28;20058;-76
2022/05/13 00:50:30;;;;;;;7.00;3.20;;;;;;;;;;5091750;28;20046;-75
2022/05/13 00:52:56;;;;;;;9.55;3.42;;;;;;;;;;5082066;28;20076;-76
2022/05/13 00:55:27;;;;;;;7.50;3.33;;;;;;;;;;5100584;28;20048;-76
2022/05/13 00:57:54;;;;;;;6.80;3.78;;;;;;;;;;5074624;28;20040;-77
2022/05/13 01:00:20;;;;;;;7.38;3.58;;;;;;;;;;5102456;28;20495;-76
2022/05/13 01:02:47;;;;;;;9.38;3.13;;;;;;;;;;5096721;28;20066;-76
2022/05/13 01:05:14;;;;;;;7.32;3.20;;;;;;;;;;5094516;28;20123;-76
2022/05/13 01:07:40;;;;;;;9.07;3.47;;;;;;;;;;5103563;28;20067;-76
2022/05/13 01:10:08;;;;;;;9.70;3.75;;;;;;;;;;5091815;28;20035;-76
2022/05/13 01:12:35;;;;;;;8.63;3.50;;;;;;;;;;5081684;28;20514;-76
2022/05/13 01:15:14;;;;;;;8.50;3.55;;;;;;;;;;5100188;28;20495;-75
2022/05/13 01:20:28;;;;;;;9.07;3.42;;;;;;;;;;5098581;28;20411;-76
2022/05/13 01:22:56;;;;;;;9.73;3.47;;;;;;;;;;5100594;28;20035;-75
2022/05/13 01:25:24;;;;;;;11.13;4.05;;;;;;;;;;5090922;28;20036;-76
2022/05/13 01:27:51;;;;;;;9.18;3.30;;;;;;;;;;5102243;28;20452;-76
2022/05/13 01:30:19;;;;;;;8.55;3.60;;;;;;;;;;5096309;28;20050;-76
2022/05/13 01:32:45;;;;;;;8.50;3.72;;;;;;;;;;5082475;28;20183;-76
2022/05/13 01:35:13;;;;;;;9.13;3.75;;;;;;;;;;5084301;28;20052;-76
2022/05/13 01:37:39;;;;;;;9.30;3.55;;;;;;;;;;5102055;28;20322;-75
2022/05/13 01:40:06;;;;;;;8.32;3.42;;;;;;;;;;5096002;28;20103;-76
2022/05/13 01:42:32;;;;;;;10.25;3.72;;;;;;;;;;5094247;28;20516;-76
2022/05/13 01:44:59;;;;;;;7.13;3.67;;;;;;;;;;5103474;28;20035;-75
2022/05/13 01:47:27;;;;;;;6.95;3.38;;;;;;;;;;5091532;28;20130;-76
2022/05/13 01:49:54;;;;;;;10.40;3.67;;;;;;;;;;5098533;28;20123;-76
2022/05/13 01:52:20;;;;;;;9.82;3.53;;;;;;;;;;5099421;28;20047;-76
2022/05/13 01:54:46;;;;;;;7.80;3.42;;;;;;;;;;5091342;28;20044;-76
2022/05/13 01:57:13;;;;;;;9.98;4.00;;;;;;;;;;5103299;28;20047;-76
2022/05/13 01:59:39;;;;;;;9.60;3.53;;;;;;;;;;5094913;28;20558;-76
2022/05/13 02:02:05;;;;;;;10.90;3.85;;;;;;;;;;5098484;28;20128;-76
2022/05/13 02:04:31;;;;;;;8.95;4.00;;;;;;;;;;5106573;28;20064;-76
2022/05/13 02:06:58;;;;;;;8.57;3.67;;;;;;;;;;5094104;28;20035;-76
2022/05/13 02:09:24;;;;;;;10.55;3.70;;;;;;;;;;5103744;28;20116;-76
2022/05/13 02:11:50;;;;;;;9.45;3.67;;;;;;;;;;5101666;28;20031;-75
2022/05/13 02:14:18;;;;;;;10.02;3.45;;;;;;;;;;5095151;28;20096;-76
2022/05/13 02:16:45;;;;;;;11.45;3.80;;;;;;;;;;5093530;28;20039;-76
2022/05/13 02:19:11;;;;;;;10.07;3.67;;;;;;;;;;5103442;28;20040;-75
2022/05/13 02:21:37;;;;;;;10.70;3.67;;;;;;;;;;5101041;28;20042;-76
2022/05/13 02:24:04;;;;;;;9.43;3.85;;;;;;;;;;5110342;28;20051;-76
2022/05/13 02:26:30;;;;;;;11.00;3.80;;;;;;;;;;5077764;28;20510;-76
2022/05/13 02:29:01;;;;;;;12.52;4.05;;;;;;;;;;5104177;28;20129;-76
2022/05/13 02:31:27;;;;;;;9.52;3.83;;;;;;;;;;5097646;28;20116;-75
2022/05/13 02:33:54;;;;;;;7.68;4.10;;;;;;;;;;5078655;28;20039;-76
2022/05/13 02:36:20;;;;;;;9.77;3.83;;;;;;;;;;5106158;28;20062;-76
2022/05/13 02:38:46;;;;;;;8.10;4.15;;;;;;;;;;5096150;28;20043;-76
2022/05/13 02:41:13;;;;;;;9.23;3.70;;;;;;;;;;5100253;28;20547;-76
2022/05/13 02:43:39;;;;;;;8.27;3.72;;;;;;;;;;5087418;28;20032;-75
2022/05/13 02:46:05;;;;;;;10.15;3.55;;;;;;;;;;5092073;28;20057;-76
2022/05/13 02:48:32;;;;;;;7.90;3.70;;;;;;;;;;5060514;28;20122;-75
2022/05/13 02:50:58;;;;;;;11.57;4.43;;;;;;;;;;5099243;28;20418;-76
2022/05/13 02:53:24;;;;;;;12.15;4.22;;;;;;;;;;5096396;28;20290;-76
2022/05/13 02:55:51;;;;;;;13.05;4.35;;;;;;;;;;5106017;28;20047;-76
2022/05/13 02:58:17;;;;;;;10.57;4.97;;;;;;;;;;5094590;28;20130;-76
2022/05/13 03:00:47;;;;;;;9.82;4.45;;;;;;;;;;5100910;28;20385;-76
2022/05/13 03:03:14;;;;;;;9.48;4.10;;;;;;;;;;5102749;28;20391;-76
2022/05/13 03:05:40;;;;;;;10.50;4.30;;;;;;;;;;5093360;28;20048;-76
2022/05/13 03:08:10;;;;;;;12.75;4.90;;;;;;;;;;5104790;28;20047;-76
2022/05/13 03:10:37;;;;;;;9.75;4.55;;;;;;;;;;5098890;28;20522;-76
2022/05/13 03:13:05;;;;;;;13.30;4.57;;;;;;;;;;5095086;28;20071;-76
2022/05/13 03:15:32;;;;;;;10.60;4.35;;;;;;;;;;5088451;28;20040;-76
2022/05/13 03:17:58;;;;;;;11.38;4.47;;;;;;;;;;5094739;28;20058;-76
2022/05/13 03:20:25;;;;;;;14.68;4.90;;;;;;;;;;5100252;28;20036;-75
2022/05/13 03:22:51;;;;;;;11.52;4.72;;;;;;;;;;5102205;28;20040;-76
2022/05/13 03:25:18;;;;;;;10.48;4.63;;;;;;;;;;5092772;28;20036;-76
2022/05/13 03:27:45;;;;;;;10.10;4.55;;;;;;;;;;5104475;28;20040;-76
2022/05/13 03:30:13;;;;;;;11.07;4.70;;;;;;;;;;5097396;28;20039;-76
2022/05/13 03:32:39;;;;;;;11.63;5.20;;;;;;;;;;5079198;28;20123;-77
2022/05/13 03:35:06;;;;;;;8.77;4.22;;;;;;;;;;5104876;28;20055;-76
2022/05/13 03:37:33;;;;;;;10.88;4.95;;;;;;;;;;5092925;28;20067;-76
2022/05/13 03:39:59;;;;;;;11.95;4.88;;;;;;;;;;5100465;28;20038;-75
2022/05/13 03:42:26;;;;;;;12.75;5.07;;;;;;;;;;5101311;28;20399;-76
2022/05/13 03:44:52;;;;;;;10.07;4.57;;;;;;;;;;5092578;28;20440;-76
2022/05/13 03:47:18;;;;;;;9.95;4.53;;;;;;;;;;5075445;28;20043;-76
2022/05/13 03:49:45;;;;;;;10.88;5.10;;;;;;;;;;5100920;28;20040;-75
2022/05/13 03:52:11;;;;;;;12.52;5.47;;;;;;;;;;5100863;28;20046;-76
2022/05/13 03:54:38;;;;;;;13.93;5.18;;;;;;;;;;5092675;28;20078;-76
2022/05/13 03:57:08;;;;;;;12.80;5.35;;;;;;;;;;5105017;28;20044;-76
2022/05/13 03:59:35;;;;;;;11.68;4.78;;;;;;;;;;5096412;28;20517;-76
2022/05/13 04:02:02;;;;;;;12.27;5.25;;;;;;;;;;5090524;28;20063;-76
2022/05/13 04:04:29;;;;;;;11.88;5.13;;;;;;;;;;5083665;28;20035;-76
2022/05/13 04:09:43;;;;;;;11.18;4.90;;;;;;;;;;5098268;28;20124;-76
2022/05/13 04:17:41;;;;;;;11.13;4.95;;;;;;;;;;5097351;28;20503;-76
2022/05/13 04:20:07;;;;;;;11.52;5.03;;;;;;;;;;5102770;28;20070;-75
2022/05/13 04:22:33;;;;;;;10.93;4.90;;;;;;;;;;5091640;28;20036;-75
2022/05/13 04:25:01;;;;;;;10.85;4.47;;;;;;;;;;5101567;28;20051;-75
2022/05/13 04:27:27;;;;;;;9.25;4.30;;;;;;;;;;5098891;28;20510;-76
2022/05/13 04:29:54;;;;;;;13.07;4.95;;;;;;;;;;5093849;28;20051;-76
2022/05/13 04:32:21;;;;;;;10.50;4.57;;;;;;;;;;5071417;28;20071;-75
2022/05/13 04:34:47;;;;;;;12.38;5.22;;;;;;;;;;5101508;28;20060;-75
2022/05/13 04:37:13;;;;;;;11.05;5.10;;;;;;;;;;5097445;28;20122;-76
2022/05/13 04:39:39;;;;;;;13.93;4.57;;;;;;;;;;5093637;28;20036;-75
2022/05/13 04:44:50;;;;;;;;;;;;;;;;;;5096075;28;20510;-76
2022/05/13 04:50:03;;;;;;;11.23;4.78;;;;;;;;;;5084790;28;20044;-75
2022/05/13 04:52:29;;;;;;;11.43;5.00;;;;;;;;;;5085962;28;20044;-76
2022/05/13 04:54:58;;;;;;;14.02;5.10;;;;;;;;;;5086941;28;20182;-76
2022/05/13 04:57:24;;;;;;;9.68;4.55;;;;;;;;;;5086662;28;20093;-76
2022/05/13 04:59:50;;;;;;;14.45;5.22;;;;;;;;;;5089235;28;20334;-75
2022/05/13 05:02:17;;;;;;;13.85;4.82;;;;;;;;;;5085524;28;20036;-76
2022/05/13 05:04:43;;;;;;;13.38;5.28;;;;;;;;;;5052809;28;20056;-77
2022/05/13 05:07:09;;;;;;;17.92;4.70;;;;;;;;;;5081034;28;20059;-77
2022/05/13 05:09:36;;;;;;;11.77;5.00;;;;;;;;;;5090266;28;20083;-76
2022/05/13 05:12:03;;;;;;;10.52;4.85;;;;;;;;;;5109674;28;20423;-76
2022/05/13 05:14:29;;;;;;;12.18;4.78;;;;;;;;;;5089216;28;20450;-76
2022/05/13 05:16:55;;;;;;;15.07;4.90;;;;;;;;;;5088694;28;20044;-76
2022/05/13 05:19:21;;;;;;;13.88;4.88;;;;;;;;;;5089642;28;20043;-76
2022/05/13 05:21:47;;;;;;;13.48;4.68;;;;;;;;;;5109637;28;20031;-76
2022/05/13 05:24:14;;;;;;;11.05;4.90;;;;;;;;;;5100676;28;20043;-76
2022/05/13 05:26:40;;;;;;;13.18;5.13;;;;;;;;;;5088578;28;20054;-76
2022/05/13 05:29:06;;;;;;;14.43;5.55;;;;;;;;;;5081107;28;20040;-75
2022/05/13 05:31:32;;;;;;;14.02;5.20;;;;;;;;;;5086641;28;20040;-76
2022/05/13 05:33:58;;;;;;;10.85;4.68;;;;;;;;;;5087283;28;20043;-75
2022/05/13 05:36:24;;;;;;;15.70;4.53;;;;;;;;;;5088846;28;20143;-75
2022/05/13 05:38:50;;;;;;;12.80;4.70;;;;;;;;;;5090273;28;20028;-75
2022/05/13 05:41:20;;;;;;;13.57;4.80;;;;;;;;;;5090492;28;20032;-75
2022/05/13 05:43:46;;;;;;;13.43;5.60;;;;;;;;;;5091122;28;20446;-75
2022/05/13 05:46:12;;;;;;;14.15;5.32;;;;;;;;;;5090729;28;20040;-76
2022/05/13 05:48:38;;;;;;;12.73;5.03;;;;;;;;;;5087996;28;20110;-76
2022/05/13 05:51:04;;;;;;;15.93;5.10;;;;;;;;;;5091239;28;20047;-76
2022/05/13 05:59:01;;;;;;;13.73;4.43;;;;;;;;;;5091770;28;20040;-76
2022/05/13 06:01:28;;;;;;;12.18;4.95;;;;;;;;;;5067363;28;20048;-75
2022/05/13 06:03:54;;;;;;;13.35;4.35;;;;;;;;;;5068062;28;20058;-75
2022/05/13 06:06:21;;;;;;;14.23;4.55;;;;;;;;;;5102991;28;20043;-76
2022/05/13 06:08:47;;;;;;;12.27;5.38;;;;;;;;;;5092783;28;20342;-76
2022/05/13 06:11:13;;;;;;;10.07;4.30;;;;;;;;;;5099917;28;20047;-76
2022/05/13 06:13:39;;;;;;;16.63;5.43;;;;;;;;;;5100026;28;20035;-75
2022/05/13 06:16:07;;;;;;;13.73;4.18;;;;;;;;;;5092211;28;20082;-76
2022/05/13 06:18:34;;;;;;;12.88;4.60;;;;;;;;;;5098352;28;20040;-77
2022/05/13 06:21:00;;;;;;;15.43;4.70;;;;;;;;;;5097528;28;20028;-76
2022/05/13 06:23:27;;;;;;;13.90;4.30;;;;;;;;;;5092814;28;20071;-75
2022/05/13 06:25:53;;;;;;;11.63;4.18;;;;;;;;;;5081105;28;20040;-76
2022/05/13 06:28:19;;;;;;;13.38;3.45;;;;;;;;;;5079301;28;20050;-75
2022/05/13 06:30:45;;;;;;;12.15;3.80;;;;;;;;;;5075443;28;20043;-76
2022/05/13 06:33:11;;;;;;;11.15;4.00;;;;;;;;;;5071834;28;20040;-75
2022/05/13 06:35:38;;;;;;;13.68;3.90;;;;;;;;;;5091457;28;20052;-75
2022/05/13 06:38:04;;;;;;;13.40;4.55;;;;;;;;;;5087323;28;20527;-76
2022/05/13 06:40:31;;;;;;;10.05;3.25;;;;;;;;;;5089366;28;20436;-74
2022/05/13 06:42:57;;;;;;;12.88;4.07;;;;;;;;;;5089482;28;20114;-75
2022/05/13 06:45:23;;;;;;;10.40;3.25;;;;;;;;;;5089103;28;20119;-75
2022/05/13 06:47:49;;;;;;;10.10;3.20;;;;;;;;;;5070469;28;20495;-76
2022/05/13 06:50:17;;;;;;;11.65;3.75;;;;;;;;;;5090776;28;20491;-76
2022/05/13 06:52:43;;;;;;;10.15;3.47;;;;;;;;;;5085589;28;20066;-75
2022/05/13 06:55:11;;;;;;;7.38;3.08;;;;;;;;;;5086104;28;20066;-75
2022/05/13 06:57:37;;;;;;;10.75;2.95;;;;;;;;;;5083692;28;20055;-76
2022/05/13 07:00:07;;;;;;;11.82;3.67;;;;;;;;;;5075760;28;20115;-75
2022/05/13 07:02:33;;;;;;;10.13;3.25;;;;;;;;;;5085256;28;20570;-76
2022/05/13 07:04:59;;;;;;;8.00;3.10;;;;;;;;;;5081007;28;20118;-76
2022/05/13 07:07:27;;;;;;;9.38;3.00;;;;;;;;;;5090795;28;20040;-76
2022/05/13 07:09:53;;;;;;;9.38;2.78;;;;;;;;;;5086606;28;20503;-76
2022/05/13 07:12:19;;;;;;;9.85;3.13;;;;;;;;;;5089099;28;20085;-76
2022/05/13 07:14:45;;;;;;;10.63;3.03;;;;;;;;;;5088490;28;20043;-75
2022/05/13 07:17:12;;;;;;;14.07;4.40;;;;;;;;;;5086306;28;20522;-77
2022/05/13 07:19:38;;;;;;;8.68;2.80;;;;;;;;;;5092666;28;20046;-75
2022/05/13 07:22:06;;;;;;;7.93;2.88;;;;;;;;;;5102289;28;20483;-75
2022/05/13 07:24:32;;;;;;;5.95;2.60;;;;;;;;;;5083759;28;20695;-75
2022/05/13 07:26:58;;;;;;;9.27;2.80;;;;;;;;;;5086392;28;20058;-77
2022/05/13 07:29:24;;;;;;;8.82;2.85;;;;;;;;;;5086983;28;20368;-76
2022/05/13 07:31:51;;;;;;;8.98;2.60;;;;;;;;;;5078707;28;20507;-78
2022/05/13 07:34:17;;;;;;;6.25;2.50;;;;;;;;;;5097461;28;20047;-75
2022/05/13 07:36:45;;;;;;;9.75;3.22;;;;;;;;;;5088069;28;20119;-76
2022/05/13 07:41:56;;;;;;;;;;;;;;;;;;5087010;28;20040;-76
2022/05/13 07:44:22;;;;;;;11.15;2.58;;;;;;;;;;5073197;28;20092;-77
2022/05/13 07:46:48;;;;;;;8.73;2.88;;;;;;;;;;5090161;28;20119;-75
2022/05/13 07:49:15;;;;;;;8.43;2.85;;;;;;;;;;5087851;28;20104;-76
2022/05/13 07:51:42;;;;;;;8.98;2.67;;;;;;;;;;5088522;28;20215;-78
2022/05/13 07:54:08;;;;;;;6.20;2.33;;;;;;;;;;5069755;28;20044;-75
2022/05/13 07:56:34;;;;;;;7.72;2.40;;;;;;;;;;5088164;28;20085;-78
2022/05/13 07:59:02;;;;;;;7.70;2.67;;;;;;;;;;5085462;28;20031;-76
2022/05/13 08:01:29;;;;;;;8.73;2.33;;;;;;;;;;5085978;28;20097;-76
2022/05/13 08:03:56;;;;;;;8.27;2.42;;;;;;;;;;5086222;28;20566;-76
2022/05/13 08:06:22;;;;;;;7.90;2.20;;;;;;;;;;5074483;28;20044;-77
2022/05/13 08:08:55;;;;;;;8.85;2.72;;;;;;;;;;5089362;28;20050;-77
2022/05/13 08:11:22;;;;;;;9.13;2.85;;;;;;;;;;5100460;28;20051;-78
2022/05/13 08:13:49;;;;;;;10.32;2.67;;;;;;;;;;5100031;28;20039;-77
2022/05/13 08:16:17;;;;;;;8.55;2.25;;;;;;;;;;5091970;28;20040;-76
2022/05/13 08:18:44;;;;;;;8.85;2.72;;;;;;;;;;5075402;28;20075;-75
2022/05/13 08:21:10;;;;;;;6.72;2.20;;;;;;;;;;5083828;28;20423;-76
2022/05/13 08:23:37;;;;;;;7.53;2.25;;;;;;;;;;5100230;28;20406;-76
2022/05/13 08:26:04;;;;;;;6.57;2.53;;;;;;;;;;5092685;28;20078;-78
2022/05/13 08:28:30;;;;;;;4.97;2.10;;;;;;;;;;5104594;28;20075;-77
2022/05/13 08:30:56;;;;;;;9.00;2.33;;;;;;;;;;5095328;28;20043;-76
2022/05/13 08:33:23;;;;;;;7.50;1.92;;;;;;;;;;5096600;28;20036;-77
2022/05/13 08:35:51;;;;;;;7.82;2.00;;;;;;;;;;5102978;28;20123;-76
2022/05/13 08:38:21;;;;;;;8.60;2.50;;;;;;;;;;5091532;28;20040;-77
2022/05/13 08:40:49;;;;;;;7.80;2.00;;;;;;;;;;5100585;28;20036;-77
2022/05/13 08:43:17;;;;;;;6.50;1.95;;;;;;;;;;5083226;28;20475;-78
2022/05/13 08:45:55;;;;;;;6.13;1.88;;;;;;;;;;5092081;28;20568;-77
2022/05/13 08:48:27;;;;;;;7.05;2.10;;;;;;;;;;5077600;28;20597;-77
2022/05/13 08:50:53;;;;;;;8.38;2.33;;;;;;;;;;5097983;28;20119;-78
2022/05/13 08:53:19;;;;;;;9.15;2.70;;;;;;;;;;5101353;28;20442;-77
2022/05/13 08:55:57;;;;;;;9.60;2.28;;;;;;;;;;5090995;28;20072;-77
2022/05/13 08:58:24;;;;;;;9.52;2.90;;;;;;;;;;5084268;28;20048;-77
2022/05/13 09:00:51;;;;;;;5.90;2.10;;;;;;;;;;5098200;28;20073;-76
2022/05/13 09:03:34;;;;;;;9.13;2.50;;;;;;;;;;5104671;28;20130;-77
2022/05/13 09:06:19;;;;;;;5.43;1.80;;;;;;;;;;5072022;28;20491;-77
2022/05/13 09:08:46;;;;;;;9.18;2.42;;;;;;;;;;5087100;28;20058;-76
2022/05/13 09:11:25;;;;;;;9.77;2.33;;;;;;;;;;5101760;28;20560;-76
2022/05/13 09:13:58;;;;;;;4.85;1.75;;;;;;;;;;5054843;28;20162;-77
2022/05/13 09:16:31;;;;;;;9.18;2.45;;;;;;;;;;5096758;28;20039;-76
2022/05/13 09:19:02;;;;;;;6.65;2.40;;;;;;;;;;5076101;28;20044;-77
2022/05/13 09:21:29;;;;;;;6.88;2.40;;;;;;;;;;5086982;28;20071;-77
2022/05/13 09:23:55;;;;;;;5.57;2.20;;;;;;;;;;5093554;28;20089;-76
2022/05/13 09:26:23;;;;;;;6.13;2.33;;;;;;;;;;5081148;28;20503;-77
2022/05/13 09:29:11;;;;;;;6.35;2.22;;;;;;;;;;5101956;28;20039;-77
2022/05/13 09:31:42;;;;;;;7.55;2.33;;;;;;;;;;5072292;28;20515;-77
2022/05/13 09:34:34;;;;;;;7.60;2.33;;;;;;;;;;5080281;28;20036;-77
2022/05/13 09:37:05;;;;;;;7.43;2.08;;;;;;;;;;5066049;28;20098;-78
2022/05/13 09:39:36;;;;;;;4.78;1.70;;;;;;;;;;5102512;28;20427;-77
2022/05/13 09:42:28;;;;;;;5.82;1.58;;;;;;;;;;5097031;28;20035;-77
2022/05/13 09:45:14;;;;;;;5.70;1.52;;;;;;;;;;5063570;28;20647;-77
2022/05/13 09:47:40;;;;;;;5.68;2.00;;;;;;;;;;5099867;28;20329;-78
2022/05/13 09:50:17;;;;;;;5.07;1.65;;;;;;;;;;5098760;28;20043;-77
2022/05/13 09:52:43;;;;;;;5.25;1.80;;;;;;;;;;5106791;28;20054;-78
2022/05/13 09:55:15;;;;;;;5.75;1.80;;;;;;;;;;5074677;28;20410;-76
2022/05/13 09:57:41;;;;;;;3.78;1.50;;;;;;;;;;5098372;28;20043;-76
2022/05/13 10:00:17;;;;;;;3.58;1.80;;;;;;;;;;5099787;28;20118;-77
2022/05/13 10:02:47;;;;;;;4.78;1.90;;;;;;;;;;5090622;28;20534;-76
2022/05/13 10:05:17;;;;;;;4.47;1.83;;;;;;;;;;5084044;28;20075;-77
2022/05/13 10:07:48;;;;;;;6.35;1.83;;;;;;;;;;5080928;28;20120;-77
2022/05/13 10:15:53;;;;;;;5.78;2.00;;;;;;;;;;5093368;28;20048;-77
2022/05/13 10:18:22;;;;;;;6.80;2.10;;;;;;;;;;5069923;28;20032;-77
2022/05/13 10:20:51;;;;;;;9.73;2.20;;;;;;;;;;5101623;28;20044;-78
2022/05/13 10:23:27;;;;;;;5.07;1.90;;;;;;;;;;5099988;28;20031;-77
2022/05/13 10:25:56;;;;;;;5.35;1.73;;;;;;;;;;5078937;28;20051;-77
2022/05/13 10:28:27;;;;;;;6.28;1.90;;;;;;;;;;5107027;28;20043;-78
2022/05/13 10:30:56;;;;;;;5.72;1.80;;;;;;;;;;5080744;28;20036;-78
2022/05/13 10:33:28;;;;;;;5.53;2.00;;;;;;;;;;5082100;28;20571;-78
2022/05/13 10:36:03;;;;;;;10.38;2.50;;;;;;;;;;5106342;28;20070;-77
2022/05/13 10:38:31;;;;;;;5.70;1.85;;;;;;;;;;5074771;28;20267;-77
2022/05/13 10:41:17;;;;;;;7.15;2.00;;;;;;;;;;5099567;28;20036;-77
2022/05/13 10:44:10;;;;;;;5.88;2.00;;;;;;;;;;5094607;28;20151;-77
2022/05/13 10:46:44;;;;;;;6.88;1.60;;;;;;;;;;5094919;28;20047;-77
2022/05/13 10:49:11;;;;;;;7.90;1.83;;;;;;;;;;5098133;28;20052;-77
2022/05/13 10:51:47;;;;;;;6.78;1.80;;;;;;;;;;5106093;28;20247;-76
2022/05/13 10:54:31;;;;;;;3.75;1.70;;;;;;;;;;5074549;28;20481;-77
2022/05/13 10:57:04;;;;;;;7.88;2.13;;;;;;;;;;5101106;28;20039;-77
2022/05/13 10:59:42;;;;;;;8.35;2.00;;;;;;;;;;5077108;28;20044;-79
2022/05/13 11:02:18;;;;;;;5.82;2.30;;;;;;;;;;5080078;28;20050;-77
2022/05/13 11:05:00;;;;;;;5.57;2.13;;;;;;;;;;5082098;28;20043;-77
2022/05/13 11:07:32;;;;;;;10.57;2.70;;;;;;;;;;5106059;28;20040;-77
2022/05/13 11:10:08;;;;;;;5.82;2.28;;;;;;;;;;5094304;28;20040;-77
2022/05/13 11:12:43;;;;;;;8.50;2.65;;;;;;;;;;5099939;28;20542;-78
2022/05/13 11:15:12;;;;;;;8.43;2.25;;;;;;;;;;5104929;28;20118;-77
2022/05/13 11:17:41;;;;;;;6.70;1.80;;;;;;;;;;5106031;28;20040;-79
2022/05/13 11:20:23;;;;;;;6.72;1.98;;;;;;;;;;5080436;28;20036;-77
2022/05/13 11:23:08;;;;;;;7.30;2.15;;;;;;;;;;5095291;28;20051;-78
2022/05/13 11:25:56;;;;;;;6.43;2.08;;;;;;;;;;5077041;28;20094;-77
2022/05/13 11:28:28;;;;;;;7.45;2.10;;;;;;;;;;5081274;28;20101;-77
2022/05/13 11:31:13;;;;;;;6.32;2.10;;;;;;;;;;5088364;28;20118;-77
2022/05/13 11:33:51;;;;;;;7.50;2.13;;;;;;;;;;5079992;28;20403;-78
2022/05/13 11:36:32;;;;;;;6.63;2.20;;;;;;;;;;5097875;28;20079;-77
2022/05/13 11:39:17;;;;;;;4.85;1.85;;;;;;;;;;5105141;28;20040;-75
2022/05/13 11:41:43;;;;;;;;;;;;;;;;;;5096566;28;20035;-76
2022/05/13 11:44:10;;;;;;;7.78;2.30;;;;;;;;;;5080677;28;19916;-78
2022/05/13 11:46:36;;;;;;;6.43;2.40;;;;;;;;;;5087047;28;20039;-77
2022/05/13 11:49:15;;;;;;;5.50;2.00;;;;;;;;;;5089393;28;20324;-78
2022/05/13 11:51:41;;;;;;;8.73;2.40;;;;;;;;;;5088583;28;20076;-78
2022/05/13 11:54:16;;;;;;;5.78;2.70;;;;;;;;;;5101334;28;20043;-77
2022/05/13 11:56:46;;;;;;;;;;;;;;;;;;5108199;28;20042;-77
2022/05/13 11:59:27;;;;;;;8.60;2.80;;;;;;;;;;5093874;28;19922;-76
2022/05/13 12:01:56;;;;;;;7.28;2.88;;;;;;;;;;5097100;28;20054;-77
2022/05/13 12:04:23;;;;;;;7.90;2.60;;;;;;;;;;5104324;28;20115;-76
2022/05/13 12:06:49;;;;;;;9.55;2.90;;;;;;;;;;5092107;28;20560;-77
2022/05/13 12:09:24;;;;;;;7.88;2.67;;;;;;;;;;5100797;28;20131;-77
2022/05/13 12:12:08;;;;;;;7.93;2.40;;;;;;;;;;5100896;28;20074;-77
2022/05/13 12:14:41;;;;;;;7.85;2.97;;;;;;;;;;5075690;28;20160;-77
2022/05/13 12:17:11;;;;;;;6.68;2.55;;;;;;;;;;5084111;28;20127;-76
2022/05/13 12:20:03;;;;;;;6.43;1.80;;;;;;;;;;5100098;28;20074;-77
2022/05/13 12:22:30;;;;;;;7.82;1.88;;;;;;;;;;5092079;28;20031;-79
2022/05/13 12:25:07;;;;;;;7.88;1.88;;;;;;;;;;5108169;28;20080;-78
2022/05/13 12:27:37;;;;;;;5.68;1.80;;;;;;;;;;5095869;28;20036;-77
2022/05/13 12:30:12;;;;;;;5.45;1.98;;;;;;;;;;5104215;28;20036;-79
2022/05/13 12:32:40;;;;;;;11.55;1.92;;;;;;;;;;5093695;28;20051;-77
2022/05/13 12:38:03;;;;;;;8.95;1.85;;;;;;;;;;5088947;28;20098;-78
2022/05/13 12:40:32;;;;;;;5.38;1.55;;;;;;;;;;5102346;28;20063;-78
2022/05/13 12:43:05;;;;;;;5.85;1.65;;;;;;;;;;5080969;28;20043;-77
2022/05/13 12:45:38;;;;;;;6.93;1.70;;;;;;;;;;5076413;28;20040;-79
2022/05/13 12:48:05;;;;;;;3.85;1.27;;;;;;;;;;5090965;28;20546;-79
2022/05/13 12:50:42;;;;;;;6.80;1.40;;;;;;;;;;5078083;28;20074;-78
2022/05/13 12:53:27;;;;;;;8.15;1.75;;;;;;;;;;5095594;28;20047;-78
2022/05/13 12:55:54;;;;;;;8.07;1.60;;;;;;;;;;5087356;28;20079;-79
2022/05/13 12:58:20;;;;;;;8.30;1.40;;;;;;;;;;5094152;28;20039;-77
2022/05/13 13:00:47;;;;;;;5.97;1.70;;;;;;;;;;5096980;28;20047;-78
2022/05/13 13:03:14;;;;;;;5.60;1.70;;;;;;;;;;5102125;28;20077;-77
2022/05/13 13:05:51;;;;;;;6.57;1.65;;;;;;;;;;5090894;28;20040;-78
2022/05/13 13:08:26;;;;;;;7.50;1.85;;;;;;;;;;5083172;28;20046;-77
2022/05/13 13:10:57;;;;;;;6.85;1.60;;;;;;;;;;5100655;28;20043;-77
2022/05/13 13:13:26;;;;;;;6.03;1.65;;;;;;;;;;5091295;28;20051;-77
2022/05/13 13:15:55;;;;;;;5.88;1.40;;;;;;;;;;5101347;28;20051;-76
2022/05/13 13:18:28;;;;;;;6.78;2.38;;;;;;;;;;5081487;28;20036;-78
2022/05/13 13:20:59;;;;;;;7.28;1.85;;;;;;;;;;5083920;28;20502;-78
2022/05/13 13:23:36;;;;;;;6.85;2.20;;;;;;;;;;5085239;28;20093;-78
2022/05/13 13:26:03;;;;;;;8.15;1.95;;;;;;;;;;5086308;28;20039;-77
2022/05/13 13:28:33;;;;;;;7.15;2.38;;;;;;;;;;5072114;28;20040;-77
2022/05/13 13:31:01;;;;;;;10.55;2.30;;;;;;;;;;5086591;28;20047;-79
2022/05/13 13:33:28;;;;;;;6.35;1.98;;;;;;;;;;5077452;28;20050;-78
2022/05/13 13:36:03;;;;;;;10.52;2.95;;;;;;;;;;5099217;28;20160;-78
2022/05/13 13:38:30;;;;;;;12.07;2.42;;;;;;;;;;5098064;28;20043;-76
2022/05/13 13:40:56;;;;;;;5.60;1.70;;;;;;;;;;5094368;28;20172;-78
2022/05/13 13:43:26;;;;;;;7.57;2.00;;;;;;;;;;5096964;28;20031;-78
2022/05/13 13:45:57;;;;;;;7.68;2.20;;;;;;;;;;5093057;28;20143;-78
2022/05/13 13:48:29;;;;;;;9.77;2.42;;;;;;;;;;5092541;28;20358;-78
2022/05/13 13:50:56;;;;;;;8.40;2.22;;;;;;;;;;5090711;28;20060;-78
2022/05/13 13:53:33;;;;;;;7.00;2.38;;;;;;;;;;5072246;28;20123;-80
2022/05/13 13:56:02;;;;;;;5.78;2.10;;;;;;;;;;5085982;28;20032;-77
2022/05/13 13:58:28;;;;;;;9.82;2.85;;;;;;;;;;5092619;28;20032;-77
2022/05/13 14:00:55;;;;;;;7.50;1.90;;;;;;;;;;5092614;28;20371;-78
2022/05/13 14:03:25;;;;;;;6.20;2.28;;;;;;;;;;5090778;28;20144;-76
2022/05/13 14:05:54;;;;;;;11.38;2.33;;;;;;;;;;5091867;28;20126;-79
2022/05/13 14:08:20;;;;;;;11.45;2.47;;;;;;;;;;5089507;28;20044;-79
2022/05/13 14:11:00;;;;;;;8.70;2.38;;;;;;;;;;5094272;28;20039;-80
2022/05/13 14:13:37;;;;;;;10.70;2.72;;;;;;;;;;5089494;28;20036;-78
2022/05/13 14:16:06;;;;;;;9.15;2.70;;;;;;;;;;5089521;28;20040;-78
2022/05/13 14:18:34;;;;;;;7.20;2.15;;;;;;;;;;5093076;28;20447;-78
2022/05/13 14:21:09;;;;;;;7.20;2.30;;;;;;;;;;5092690;28;20127;-78
2022/05/13 14:23:35;;;;;;;7.30;2.75;;;;;;;;;;5092897;28;20477;-80
2022/05/13 14:26:03;;;;;;;8.18;2.67;;;;;;;;;;5094029;28;20038;-78
2022/05/13 14:28:30;;;;;;;11.15;2.53;;;;;;;;;;5096202;28;20436;-78
2022/05/13 14:31:01;;;;;;;7.93;2.45;;;;;;;;;;5101949;28;20077;-79
2022/05/13 14:33:31;;;;;;;11.77;2.67;;;;;;;;;;5103044;28;20047;-76
2022/05/13 14:36:04;;;;;;;9.50;2.50;;;;;;;;;;5092805;28;20044;-78
2022/05/13 14:41:24;;;;;;;10.38;2.70;;;;;;;;;;5103428;28;20297;-78
2022/05/13 14:43:50;;;;;;;8.32;2.20;;;;;;;;;;5093470;28;20039;-77
2022/05/13 14:46:17;;;;;;;7.50;1.80;;;;;;;;;;5105428;28;20090;-78
2022/05/13 14:48:43;;;;;;;7.35;2.38;;;;;;;;;;5098711;28;20040;-76
2022/05/13 14:51:17;;;;;;;9.00;2.50;;;;;;;;;;5095558;28;20050;-78
2022/05/13 14:53:54;;;;;;;9.90;2.50;;;;;;;;;;5069452;28;20032;-78
2022/05/13 14:56:21;;;;;;;9.88;3.42;;;;;;;;;;5081639;28;20385;-77
2022/05/13 14:58:53;;;;;;;9.55;2.30;;;;;;;;;;5091570;28;20258;-77
2022/05/13 15:01:27;;;;;;;7.28;2.30;;;;;;;;;;5072824;28;20101;-78
2022/05/13 15:04:13;;;;;;;11.02;3.10;;;;;;;;;;5088730;28;20035;-78
2022/05/13 15:06:45;;;;;;;8.73;2.72;;;;;;;;;;5068179;28;20036;-78
2022/05/13 15:09:30;;;;;;;7.53;2.25;;;;;;;;;;5074788;28;20051;-77
2022/05/13 15:11:57;;;;;;;10.93;2.75;;;;;;;;;;5087115;28;20036;-77
2022/05/13 15:14:24;;;;;;;9.30;2.67;;;;;;;;;;5080025;28;20395;-78
2022/05/13 15:16:50;;;;;;;8.50;2.33;;;;;;;;;;5089175;28;20048;-77
2022/05/13 15:19:28;;;;;;;9.40;2.70;;;;;;;;;;5069854;28;20076;-78
2022/05/13 15:21:55;;;;;;;8.57;3.00;;;;;;;;;;5070826;28;20032;-78
2022/05/13 15:24:22;;;;;;;9.35;2.70;;;;;;;;;;5085425;28;20036;-77
2022/05/13 15:26:48;;;;;;;9.25;2.85;;;;;;;;;;5069305;28;20368;-78
2022/05/13 15:29:14;;;;;;;7.55;2.50;;;;;;;;;;5087737;28;20269;-78